Latest Weather Observations for Bulman

IDD60801

Issued at 7:01 am CST Saturday 18 August 2018 (issued every 10 minutes, with the page automatically refreshed every 10 minutes)

About weather observations | Map of weather stations | Latest weather observations for NT | Other Formats
Station Details ID: 014627 Name: BULMAN Lat: -13.67 Lon: 134.34 Height: 103.4 m
Data from the previous 72 hours. | See also: Recent months at Bulman
Date/Time
CST
Temp
°C
App
Temp
°C
Dew
Point
°C
Rel
Hum
%
Delta-T
°C
Wind Press
QNH
hPa
Press
MSL
hPa
Rain since
9am
mm
Dir  Spd
km/h
Gust
km/h
Spd
kts
Gust
kts
18/07:00am 13.8 14.2 11.3 85 1.3 CALM 0 0 0 0 1015.5 1015.1 0.0
18/06:30am 13.6 13.9 11.0 84 1.4 CALM 0 0 0 0 1014.9 1014.5 0.0
18/06:00am 13.6 13.9 11.0 84 1.4 CALM 0 0 0 0 1014.6 1014.2 0.0
18/05:30am 13.9 14.2 10.9 82 1.6 CALM 0 4 0 2 1014.2 1013.8 0.0
18/05:00am 14.2 14.4 10.4 78 2.0 CALM 0 0 0 0 1013.9 1013.5 0.0
18/04:30am 14.7 14.9 10.7 77 2.1 CALM 0 0 0 0 1013.9 1013.5 0.0
18/04:00am 15.0 15.2 10.6 75 2.3 CALM 0 0 0 0 1013.7 1013.3 0.0
18/03:30am 15.5 15.6 10.3 71 2.7 CALM 0 0 0 0 1013.7 1013.3 0.0
18/03:00am 16.2 16.5 10.9 71 2.8 CALM 0 6 0 3 1013.8 1013.4 0.0
18/02:30am 16.7 15.8 10.5 67 3.3 WSW 6 7 3 4 1014.1 1013.7 0.0
18/02:00am 16.9 16.8 10.7 67 3.3 SSW 2 6 1 3 1014.3 1013.9 0.0
18/01:30am 16.9 17.0 10.1 64 3.6 CALM 0 0 0 0 1014.5 1014.1 0.0
18/01:00am 17.5 17.5 9.9 61 4.0 CALM 0 0 0 0 1014.5 1014.1 0.0
18/12:30am 18.4 18.3 9.5 56 4.7 CALM 0 0 0 0 1014.5 1014.1 0.0
18/12:00am 19.1 19.0 9.6 54 5.1 CALM 0 0 0 0 1014.4 1014.0 0.0
 
Date/Time
CST
Temp
°C
App
Temp
°C
Dew
Point
°C
Rel
Hum
%
Delta-T
°C
Wind Press
QNH
hPa
Press
MSL
hPa
Rain since
9am
mm
Dir  Spd
km/h
Gust
km/h
Spd
kts
Gust
kts
17/11:30pm 19.8 19.6 9.1 50 5.7 CALM 0 0 0 0 1014.4 1014.0 0.0
17/11:00pm 20.7 20.4 8.7 46 6.3 CALM 0 4 0 2 1014.4 1014.0 0.0
17/10:30pm 22.2 20.9 7.6 39 7.6 ENE 4 7 2 4 1014.4 1014.0 0.0
17/10:00pm 24.1 22.3 7.3 34 8.8 E 6 9 3 5 1014.3 1013.9 0.0
17/09:30pm 24.8 22.9 7.4 33 9.2 ESE 7 15 4 8 1014.1 1013.7 0.0
17/09:00pm 25.5 23.2 7.6 32 9.5 ESE 9 17 5 9 1013.7 1013.3 0.0
17/08:30pm 26.0 23.7 7.6 31 9.8 ESE 9 15 5 8 1013.2 1012.8 0.0
17/08:00pm 26.7 24.1 7.7 30 10.2 ESE 11 20 6 11 1012.7 1012.2 0.0
17/07:30pm 27.0 25.1 7.5 29 10.5 ESE 7 13 4 7 1012.1 1011.6 0.0
17/07:00pm 26.5 24.8 7.5 30 10.2 SE 6 9 3 5 1011.5 1011.0 0.0
17/06:30pm 28.4 26.4 7.1 26 11.4 SE 7 11 4 6 1010.9 1010.4 0.0
17/06:00pm 30.0 27.5 6.6 23 12.6 SE 9 17 5 9 1010.7 1010.2 0.0
17/05:30pm 30.9 28.4 6.7 22 13.1 SE 9 15 5 8 1010.3 1009.8 0.0
17/05:00pm 31.2 27.5 6.3 21 13.4 SE 15 24 8 13 1009.8 1009.3 0.0
17/04:30pm 31.5 28.5 5.8 20 13.7 ESE 11 28 6 15 1009.6 1009.1 0.0
17/04:00pm 31.3 27.9 5.7 20 13.6 E 13 20 7 11 1009.6 1009.1 0.0
17/03:30pm 32.1 28.8 6.3 20 14.0 ESE 13 24 7 13 1009.6 1009.1 0.0
17/03:00pm 31.7 28.2 3.7 17 14.5 E 11 20 6 11 1009.9 1009.4 0.0
17/02:30pm 31.6 27.5 4.4 18 14.2 S 15 28 8 15 1010.5 1010.0 0.0
17/02:00pm 30.9 26.2 3.0 17 14.2 SSE 17 26 9 14 1010.9 1010.4 0.0
17/01:30pm 30.7 27.3 5.9 21 13.2 SE 13 22 7 12 1011.3 1010.8 0.0
17/01:00pm 29.9 26.2 6.5 23 12.5 ESE 15 24 8 13 1011.8 1011.3 0.0
17/12:30pm 30.2 27.0 6.8 23 12.6 ESE 13 24 7 13 1012.3 1011.8 0.0
17/12:00pm 28.9 25.5 9.1 29 11.0 SE 17 26 9 14 1013.0 1012.5 0.0
17/11:30am 28.8 24.9 8.5 28 11.2 ESE 19 28 10 15 1013.7 1013.3 0.0
17/11:00am 28.2 24.7 7.4 27 11.2 ESE 15 28 8 15 1014.1 1013.7 0.0
17/10:30am 27.2 25.7 10.4 35 9.5 E 9 15 5 8 1014.4 1014.0 0.0
17/10:00am 25.9 25.3 11.6 40 8.2 ENE 6 13 3 7 1014.7 1014.3 0.0
17/09:30am 24.7 25.5 13.6 50 6.5 NE 2 7 1 4 1014.8 1014.4 0.0
17/09:00am 22.7 23.7 14.3 59 5.0 N 2 6 1 3 1014.8 1014.4 0.0
17/08:30am 20.4 21.5 13.4 64 4.0 CALM 0 6 0 3 1014.7 1014.3 0.0
17/08:00am 17.7 18.1 12.6 72 2.8 NE 2 6 1 3 1014.5 1014.1 0.0
17/07:30am 15.2 15.9 12.2 82 1.6 CALM 0 0 0 0 1014.3 1013.9 0.0
17/07:00am 13.6 14.1 11.5 87 1.1 CALM 0 0 0 0 1013.9 1013.5 0.0
17/06:30am 13.6 14.0 11.1 85 1.3 CALM 0 0 0 0 1013.7 1013.3 0.0
17/06:00am 13.7 14.0 11.0 84 1.4 CALM 0 0 0 0 1013.4 1013.0 0.0
17/05:30am 14.0 14.3 10.8 81 1.7 CALM 0 0 0 0 1013.1 1012.6 0.0
17/05:00am 14.4 14.6 10.6 78 2.0 CALM 0 0 0 0 1013.0 1012.5 0.0
17/04:30am 14.7 15.0 10.9 78 2.0 CALM 0 0 0 0 1013.0 1012.5 0.0
17/04:00am 15.0 15.3 10.8 76 2.2 CALM 0 0 0 0 1013.0 1012.5 0.0
17/03:30am 15.5 15.8 10.9 74 2.5 CALM 0 0 0 0 1013.0 1012.5 0.0
17/03:00am 16.0 16.3 11.0 72 2.7 CALM 0 0 0 0 1013.0 1012.5 0.0
17/02:30am 16.4 16.7 10.9 70 3.0 CALM 0 0 0 0 1013.2 1012.8 0.0
17/02:00am 16.8 17.0 10.6 67 3.3 CALM 0 0 0 0 1013.4 1013.0 0.0
17/01:30am 17.1 17.3 10.5 65 3.5 CALM 0 0 0 0 1013.7 1013.3 0.0
17/01:00am 17.5 17.7 10.4 63 3.8 CALM 0 0 0 0 1013.8 1013.4 0.0
17/12:30am 17.9 18.0 10.0 60 4.2 CALM 0 0 0 0 1013.9 1013.5 0.0
17/12:00am 18.3 18.1 9.1 55 4.8 CALM 0 0 0 0 1013.9 1013.5 0.0
 
Date/Time
CST
Temp
°C
App
Temp
°C
Dew
Point
°C
Rel
Hum
%
Delta-T
°C
Wind Press
QNH
hPa
Press
MSL
hPa
Rain since
9am
mm
Dir  Spd
km/h
Gust
km/h
Spd
kts
Gust
kts
16/11:30pm 19.6 19.4 8.9 50 5.6 CALM 0 0 0 0 1014.0 1013.6 0.0
16/11:00pm 21.1 20.1 8.7 45 6.6 SE 4 7 2 4 1013.8 1013.4 0.0
16/10:30pm 22.1 20.4 7.5 39 7.6 SE 6 9 3 5 1013.8 1013.4 0.0
16/10:00pm 22.5 20.3 6.3 35 8.3 SE 7 13 4 7 1013.7 1013.3 0.0
16/09:30pm 23.3 21.0 5.7 32 8.9 SE 7 11 4 6 1013.6 1013.2 0.0
16/09:00pm 23.5 21.4 5.9 32 9.0 SE 6 7 3 4 1013.4 1013.0 0.0
16/08:30pm 24.3 22.2 5.6 30 9.5 SE 6 9 3 5 1013.0 1012.5 0.0
16/08:00pm 23.2 21.2 6.1 33 8.7 SSE 6 7 3 4 1012.2 1011.7 0.0
16/07:30pm 23.9 21.6 5.8 31 9.3 SSE 7 9 4 5 1011.6 1011.1 0.0
16/07:00pm 25.3 23.1 5.5 28 10.1 SSW 6 7 3 4 1011.1 1010.6 0.0
16/06:30pm 27.7 25.2 4.7 23 11.8 S 7 9 4 5 1010.9 1010.4 0.0
16/06:00pm 29.4 26.4 4.1 20 13.0 SE 9 13 5 7 1010.6 1010.1 0.0
16/05:30pm 30.2 26.8 4.0 19 13.5 SE 11 15 6 8 1010.4 1009.9 0.0
16/05:00pm 30.8 27.3 5.3 20 13.5 SE 13 19 7 10 1010.1 1009.6 0.0
16/04:30pm 31.0 28.5 4.7 19 13.8 SE 7 15 4 8 1010.0 1009.5 0.0
16/04:00pm 31.0 27.5 5.4 20 13.5 E 13 19 7 10 1010.0 1009.5 0.0
16/03:30pm 31.1 27.6 5.5 20 13.6 ESE 13 22 7 12 1010.2 1009.7 0.0
16/03:00pm 31.2 27.8 4.1 18 14.1 ESE 11 22 6 12 1010.3 1009.8 0.0
16/02:30pm 30.7 27.3 5.9 21 13.2 E 13 26 7 14 1010.9 1010.4 0.0
16/02:00pm 31.6 29.1 6.6 21 13.5 NE 9 13 5 7 1011.4 1010.9 0.0
16/01:30pm 30.1 26.2 5.4 21 13.0 ESE 15 26 8 14 1011.9 1011.4 0.0
16/01:00pm 29.7 25.9 5.7 22 12.7 ESE 15 26 8 14 1012.3 1011.8 0.0
16/12:30pm 29.1 26.5 9.3 29 11.1 SSE 13 20 7 11 1013.0 1012.5 0.0
16/12:00pm 29.0 26.5 9.7 30 10.8 E 13 22 7 12 1013.7 1013.3 0.0
16/11:30am 27.9 25.5 10.1 33 10.0 E 13 24 7 13 1014.4 1014.0 0.0
16/11:00am 27.3 25.3 10.1 34 9.7 ESE 11 17 6 9 1014.9 1014.5 0.0
16/10:30am 25.3 24.5 12.9 46 7.2 NNE 9 13 5 7 1015.4 1015.0 0.0
16/10:00am 24.9 24.5 13.1 48 6.9 NNE 7 11 4 6 1015.7 1015.3 0.0
16/09:30am 23.7 25.1 15.5 60 4.9 N 2 7 1 4 1015.6 1015.2 0.0
16/09:00am 22.8 23.8 14.4 59 5.0 NE 2 7 1 4 1015.5 1015.1 0.0
16/08:30am 20.9 20.7 13.1 61 4.5 ENE 6 7 3 4 1015.4 1015.0 0.0
16/08:00am 17.9 18.7 12.4 70 3.1 CALM 0 0 0 0 1015.2 1014.8 0.0
16/07:30am 15.0 15.7 12.1 83 1.6 CALM 0 0 0 0 1014.9 1014.5 0.0
16/07:00am 13.1 13.3 10.6 85 1.3 CALM 0 0 0 0 1014.8 1014.4 0.0
16/06:30am 13.2 13.4 10.4 83 1.5 CALM 0 0 0 0 1014.5 1014.1 0.0
16/06:00am 13.3 13.4 10.1 81 1.7 CALM 0 0 0 0 1014.3 1013.9 0.0
16/05:30am 13.5 13.6 10.1 80 1.8 CALM 0 0 0 0 1014.0 1013.6 0.0
16/05:00am 13.7 13.8 10.1 79 1.9 CALM 0 0 0 0 1013.9 1013.5 0.0
16/04:30am 14.1 14.2 10.1 77 2.1 CALM 0 0 0 0 1013.9 1013.5 0.0
16/04:00am 14.4 14.5 10.0 75 2.3 CALM 0 0 0 0 1014.0 1013.6 0.0
16/03:30am 15.0 15.1 10.2 73 2.5 CALM 0 0 0 0 1013.9 1013.5 0.0
16/03:00am 15.6 15.7 10.2 70 2.8 CALM 0 0 0 0 1014.1 1013.7 0.0
16/02:30am 15.8 15.4 9.9 68 3.1 N 2 6 1 3 1014.4 1014.0 0.0
16/02:00am 16.6 16.6 9.8 64 3.6 CALM 0 0 0 0 1014.7 1014.3 0.0
16/01:30am 17.4 17.3 9.6 60 4.1 CALM 0 0 0 0 1014.8 1014.4 0.0
16/01:00am 18.3 18.2 9.6 57 4.6 CALM 0 0 0 0 1015.1 1014.7 0.0
16/12:30am 19.3 18.5 9.5 53 5.2 SE 4 7 2 4 1015.4 1015.0 0.0
16/12:00am 19.9 18.7 9.5 51 5.5 SE 6 7 3 4 1015.6 1015.2 0.0
 
Date/Time
CST
Temp
°C
App
Temp
°C
Dew
Point
°C
Rel
Hum
%
Delta-T
°C
Wind Press
QNH
hPa
Press
MSL
hPa
Rain since
9am
mm
Dir  Spd
km/h
Gust
km/h
Spd
kts
Gust
kts
15/11:30pm 20.3 19.3 8.9 48 6.0 ESE 4 7 2 4 1015.8 1015.4 0.0
15/11:00pm 20.9 19.7 8.2 44 6.7 SE 4 6 2 3 1016.0 1015.6 0.0
15/10:30pm 21.8 20.3 8.3 42 7.1 ESE 6 9 3 5 1015.9 1015.5 0.0
15/10:00pm 22.7 20.9 7.3 37 8.0 SE 6 9 3 5 1015.9 1015.5 0.0
15/09:30pm 23.8 21.6 7.8 36 8.5 ESE 9 13 5 7 1015.7 1015.3 0.0
15/09:00pm 24.3 21.6 7.4 34 8.9 ESE 11 15 6 8 1015.4 1015.0 0.0
15/08:30pm 25.0 22.0 7.6 33 9.2 ESE 13 20 7 11 1014.9 1014.5 0.0
15/08:00pm 25.9 23.2 8.8 34 9.3 E 13 19 7 10 1014.4 1014.0 0.0
15/07:30pm 26.6 23.7 8.1 31 10.0 E 13 20 7 11 1013.7 1013.3 0.0
15/07:00pm 27.5 24.9 7.9 29 10.6 E 11 20 6 11 1013.1 1012.6 0.0
15/06:30pm 28.4 25.4 7.6 27 11.3 E 13 19 7 10 1012.7 1012.2 0.0
15/06:00pm 29.7 27.7 7.0 24 12.3 E 7 13 4 7 1012.4 1011.9 0.0
15/05:30pm 30.4 28.2 6.3 22 12.9 NE 7 17 4 9 1012.3 1011.8 0.0
15/05:00pm 30.6 27.9 5.8 21 13.2 ENE 9 13 5 7 1012.3 1011.8 0.0
15/04:30pm 31.1 28.1 6.2 21 13.4 E 11 17 6 9 1012.3 1011.8 0.0
15/04:00pm 31.1 28.1 6.2 21 13.4 NNE 11 15 6 8 1012.4 1011.9 0.0
15/03:30pm 30.9 27.9 6.0 21 13.3 E 11 22 6 12 1012.5 1012.0 0.0
15/03:00pm 31.2 28.3 6.3 21 13.4 NE 11 22 6 12 1012.7 1012.2 0.0
15/02:30pm 30.6 27.8 5.1 20 13.4 NE 9 22 5 12 1013.2 1012.8 0.0
15/02:00pm 30.7 28.1 5.9 21 13.2 NW 9 17 5 9 1013.6 1013.2 0.0
15/01:30pm 30.4 27.1 6.3 22 12.9 ESE 13 19 7 10 1014.2 1013.8 0.0
15/01:00pm 30.5 27.2 6.4 22 12.9 ENE 13 26 7 14 1014.6 1014.2 0.0
15/12:30pm 29.5 26.6 8.0 26 11.8 E 13 24 7 13 1015.3 1014.9 0.0
15/12:00pm 29.0 26.9 8.1 27 11.4 SSE 9 17 5 9 1015.8 1015.4 0.0
15/11:30am 28.5 26.3 9.2 30 10.7 E 11 19 6 10 1016.7 1016.2 0.0
15/11:00am 27.3 24.6 10.5 35 9.5 SE 15 20 8 11 1017.1 1016.6 0.0
15/10:30am 25.8 23.6 10.8 39 8.4 SSE 13 20 7 11 1017.6 1017.1 0.0
15/10:00am 24.5 23.2 13.7 51 6.4 SE 13 20 7 11 1017.8 1017.3 0.0
15/09:30am 23.0 23.2 15.8 64 4.4 E 9 15 5 8 1017.7 1017.2 0.0
15/09:00am 21.3 21.9 16.7 75 2.8 ESE 9 13 5 7 1017.7 1017.2 0.0
15/08:30am 19.7 21.0 17.1 85 1.6 NE 6 11 3 6 1017.6 1017.1 0.0
15/08:00am 16.8 18.4 14.8 88 1.2 CALM 0 0 0 0 1017.3 1016.8 0.0
15/07:30am 15.0 16.3 14.0 94 0.6 CALM 0 0 0 0 1017.1 1016.6 0.0

Other Formats:

Comma delimited format used in spreadsheet applications
http://www.bom.gov.au/fwo/IDD60801/IDD60801.94143.axf

JavaScript Object Notation format (JSON) in row-major order
http://www.bom.gov.au/fwo/IDD60801/IDD60801.94143.json